createdAt,value
2023-09-08T00:00:00.245Z,102518.79
2023-09-08T00:02:28.822Z,102518.96
2023-09-08T00:04:57.057Z,102518.44
2023-09-08T00:07:24.135Z,102511.80
2023-09-08T00:09:51.406Z,102516.15
2023-09-08T00:12:20.047Z,102512.60
2023-09-08T00:14:46.943Z,102513.19
2023-09-08T00:17:13.905Z,102512.31
2023-09-08T00:19:42.057Z,102508.69
2023-09-08T00:22:08.943Z,102510.39
2023-09-08T00:24:35.859Z,102509.45
2023-09-08T00:27:04.243Z,102511.86
2023-09-08T00:29:31.116Z,102508.45
2023-09-08T00:31:58.021Z,102508.89
2023-09-08T00:34:26.208Z,102500.80
2023-09-08T00:36:53.045Z,102498.67
2023-09-08T00:39:20.219Z,102495.38
2023-09-08T00:41:48.352Z,102493.50
2023-09-08T00:44:15.422Z,102491.07
2023-09-08T00:46:42.719Z,102491.30
2023-09-08T00:49:12.014Z,102488.33
2023-09-08T00:51:39.171Z,102489.80
2023-09-08T00:54:07.164Z,102489.03
2023-09-08T00:56:37.787Z,102486.15
2023-09-08T00:59:05.789Z,102486.98
2023-09-08T01:01:34.539Z,102487.42
2023-09-08T01:04:02.330Z,102486.91
2023-09-08T01:06:31.804Z,102489.25
2023-09-08T01:09:00.392Z,102486.47
2023-09-08T01:11:28.348Z,102488.39
2023-09-08T01:13:55.192Z,102487.61
2023-09-08T01:16:23.585Z,102484.34
2023-09-08T01:18:52.355Z,102487.77
2023-09-08T01:22:00.075Z,102485.20
2023-09-08T01:25:05.824Z,102480.73
2023-09-08T01:27:37.559Z,102480.79
2023-09-08T01:30:07.301Z,102480.16
2023-09-08T01:32:35.771Z,102482.17
2023-09-08T01:35:03.408Z,102479.50
2023-09-08T01:37:30.310Z,102480.09
2023-09-08T01:39:58.514Z,102481.52
2023-09-08T01:42:25.379Z,102482.86
2023-09-08T01:44:52.369Z,102482.89
2023-09-08T01:47:20.620Z,102482.55
2023-09-08T01:49:47.509Z,102481.52
2023-09-08T01:52:14.516Z,102482.21
2023-09-08T01:54:42.885Z,102484.31
2023-09-08T01:57:09.834Z,102483.71
2023-09-08T01:59:36.709Z,102478.66
2023-09-08T02:02:04.871Z,102479.18
2023-09-08T02:04:32.202Z,102482.08
2023-09-08T02:06:59.437Z,102476.24
2023-09-08T02:09:36.913Z,102478.02
2023-09-08T02:12:05.673Z,102476.96
2023-09-08T02:14:32.579Z,102479.54
2023-09-08T02:16:59.441Z,102483.91
2023-09-08T02:19:27.706Z,102479.98
2023-09-08T02:21:55.027Z,102474.90
2023-09-08T02:24:22.027Z,102475.52
2023-09-08T02:26:50.454Z,102472.12
2023-09-08T02:29:17.711Z,102473.77
2023-09-08T02:31:45.369Z,102468.82
2023-09-08T02:34:13.557Z,102468.20
2023-09-08T02:36:40.622Z,102467.10
2023-09-08T02:39:07.557Z,102466.89
2023-09-08T02:41:35.697Z,102468.42
2023-09-08T02:44:03.351Z,102466.91
2023-09-08T02:46:30.258Z,102465.90
2023-09-08T02:48:58.439Z,102463.10
2023-09-08T02:51:25.353Z,102466.38
2023-09-08T02:53:52.279Z,102467.96
2023-09-08T02:56:20.440Z,102468.74
2023-09-08T02:58:47.383Z,102464.25
2023-09-08T03:01:17.002Z,102465.70
2023-09-08T03:03:45.300Z,102460.08
2023-09-08T03:06:15.394Z,102459.31
2023-09-08T03:08:43.791Z,102458.42
2023-09-08T03:11:10.702Z,102454.45
2023-09-08T03:13:37.659Z,102455.05
2023-09-08T03:16:08.424Z,102452.39
2023-09-08T03:18:37.489Z,102448.64
2023-09-08T03:21:06.853Z,102445.90
2023-09-08T03:23:33.740Z,102444.38
2023-09-08T03:26:00.596Z,102440.89
2023-09-08T03:28:27.898Z,102439.13
2023-09-08T03:30:54.866Z,102437.21
2023-09-08T03:33:22.015Z,102437.80
2023-09-08T03:35:50.249Z,102435.27
2023-09-08T03:38:17.093Z,102436.37
2023-09-08T03:40:44.077Z,102437.94
2023-09-08T03:43:12.449Z,102434.02
2023-09-08T03:45:39.536Z,102433.14
2023-09-08T03:48:06.799Z,102430.11
2023-09-08T03:50:35.548Z,102429.21
2023-09-08T03:53:02.876Z,102429.33
2023-09-08T03:55:29.796Z,102426.78
2023-09-08T03:57:58.150Z,102423.57
2023-09-08T04:00:25.235Z,102424.36
2023-09-08T04:02:52.417Z,102420.79
2023-09-08T04:05:20.969Z,102419.17
2023-09-08T04:07:48.062Z,102419.20
2023-09-08T04:10:15.085Z,102417.58
2023-09-08T04:12:43.250Z,102416.45
2023-09-08T04:15:10.420Z,102424.33
2023-09-08T04:17:38.318Z,102425.31
2023-09-08T04:20:08.273Z,102419.96
2023-09-08T04:22:35.247Z,102420.38
2023-09-08T04:25:02.954Z,102420.29
2023-09-08T04:27:31.097Z,102416.79
2023-09-08T04:29:57.982Z,102422.37
2023-09-08T04:32:25.415Z,102420.98
2023-09-08T04:34:53.539Z,102423.48
2023-09-08T04:37:20.432Z,102426.61
2023-09-08T04:39:47.396Z,102423.75
2023-09-08T04:42:15.540Z,102418.88
2023-09-08T04:44:42.433Z,102419.90
2023-09-08T04:47:09.299Z,102418.18
2023-09-08T04:49:37.500Z,102420.33
2023-09-08T04:52:05.121Z,102417.23
2023-09-08T04:54:32.023Z,102413.64
2023-09-08T04:57:11.851Z,102415.33
2023-09-08T04:59:48.826Z,102417.55
2023-09-08T05:02:15.823Z,102419.90
2023-09-08T05:04:42.697Z,102419.27
2023-09-08T05:07:10.847Z,102416.80
2023-09-08T05:09:37.860Z,102415.09
2023-09-08T05:12:05.016Z,102413.89
2023-09-08T05:14:33.148Z,102414.59
2023-09-08T05:17:00.038Z,102415.16
2023-09-08T05:19:26.892Z,102416.48
2023-09-08T05:21:55.721Z,102417.94
2023-09-08T05:24:22.645Z,102415.86
2023-09-08T05:26:49.505Z,102415.05
2023-09-08T05:29:17.679Z,102419.41
2023-09-08T05:31:44.639Z,102415.98
2023-09-08T05:34:11.469Z,102416.33
2023-09-08T05:36:39.825Z,102411.55
2023-09-08T05:39:07.101Z,102403.31
2023-09-08T05:41:34.070Z,102405.48
2023-09-08T05:44:02.574Z,102408.05
2023-09-08T05:46:29.541Z,102406.41
2023-09-08T05:48:56.458Z,102401.08
2023-09-08T05:51:24.049Z,102402.67
2023-09-08T05:53:50.992Z,102406.13
2023-09-08T05:56:19.876Z,102405.88
2023-09-08T05:58:48.065Z,102405.88
2023-09-08T06:01:16.485Z,102403.34
2023-09-08T06:03:46.132Z,102400.20
2023-09-08T06:06:13.107Z,102404.06
2023-09-08T06:08:39.983Z,102404.81
2023-09-08T06:11:08.154Z,102404.86
2023-09-08T06:13:35.005Z,102396.36
2023-09-08T06:16:01.870Z,102394.65
2023-09-08T06:18:30.106Z,102396.80
2023-09-08T06:20:57.696Z,102396.34
2023-09-08T06:23:24.731Z,102396.96
2023-09-08T06:25:57.001Z,102398.45
2023-09-08T06:28:23.970Z,102395.84
2023-09-08T06:30:52.154Z,102398.02
2023-09-08T06:33:19.151Z,102394.36
2023-09-08T06:35:47.327Z,102397.90
2023-09-08T06:38:15.477Z,102402.84
2023-09-08T06:40:42.407Z,102402.44
2023-09-08T06:43:09.373Z,102395.94
2023-09-08T06:45:40.579Z,102401.41
2023-09-08T06:48:07.498Z,102390.56
2023-09-08T06:50:36.698Z,102390.73
2023-09-08T06:53:03.887Z,102396.45
2023-09-08T06:55:31.053Z,102393.59
2023-09-08T06:57:59.223Z,102393.00
2023-09-08T07:00:26.128Z,102391.09
2023-09-08T07:02:53.152Z,102389.39
2023-09-08T07:05:21.649Z,102388.63
2023-09-08T07:07:48.645Z,102380.11
2023-09-08T07:10:17.241Z,102383.73
2023-09-08T07:12:45.383Z,102388.39
2023-09-08T07:15:12.290Z,102388.81
2023-09-08T07:17:39.525Z,102388.27
2023-09-08T07:20:08.430Z,102389.25
2023-09-08T07:22:35.335Z,102388.17
2023-09-08T07:25:02.474Z,102379.91
2023-09-08T07:27:29.802Z,102379.42
2023-09-08T07:29:56.804Z,102384.23
2023-09-08T07:32:23.699Z,102384.20
2023-09-08T07:34:51.369Z,102380.42
2023-09-08T07:37:18.249Z,102382.03
2023-09-08T07:39:46.184Z,102379.00
2023-09-08T07:42:14.408Z,102379.66
2023-09-08T07:44:41.287Z,102377.52
2023-09-08T07:47:08.594Z,102377.06
2023-09-08T07:49:37.144Z,102375.70
2023-09-08T07:52:04.635Z,102381.55
2023-09-08T07:54:31.525Z,102378.79
2023-09-08T07:56:59.670Z,102376.69
2023-09-08T07:59:26.644Z,102378.13
2023-09-08T08:01:53.599Z,102378.59
2023-09-08T08:04:20.998Z,102379.70
2023-09-08T08:06:47.925Z,102379.92
2023-09-08T08:09:14.782Z,102376.75
2023-09-08T08:11:43.113Z,102381.98
2023-09-08T08:14:10.033Z,102376.70
2023-09-08T08:16:36.889Z,102378.40
2023-09-08T08:19:05.074Z,102372.52
2023-09-08T08:21:31.996Z,102374.16
2023-09-08T08:23:58.866Z,102369.48
2023-09-08T08:26:27.076Z,102368.73
2023-09-08T08:28:53.949Z,102369.70
2023-09-08T08:31:20.844Z,102368.24
2023-09-08T08:33:49.049Z,102360.84
2023-09-08T08:36:15.928Z,102357.98
2023-09-08T08:38:42.957Z,102358.78
2023-09-08T08:41:11.081Z,102351.85
2023-09-08T08:43:38.289Z,102357.08
2023-09-08T08:46:06.637Z,102351.70
2023-09-08T08:48:36.588Z,102352.07
2023-09-08T08:51:03.796Z,102352.80
2023-09-08T08:53:31.770Z,102348.22
2023-09-08T08:56:00.326Z,102347.17
2023-09-08T08:58:29.183Z,102347.45
2023-09-08T09:01:00.495Z,102354.16
2023-09-08T09:03:28.100Z,102344.75
2023-09-08T09:05:57.680Z,102346.96
2023-09-08T09:08:25.194Z,102347.58
2023-09-08T09:10:52.633Z,102343.67
2023-09-08T09:13:20.830Z,102341.16
2023-09-08T09:15:50.629Z,102340.98
2023-09-08T09:18:19.865Z,102333.54
2023-09-08T09:20:54.892Z,102337.02
2023-09-08T09:23:34.853Z,102334.69
2023-09-08T09:26:04.289Z,102332.64
2023-09-08T09:28:31.344Z,102325.84
2023-09-08T09:30:58.260Z,102324.11
2023-09-08T09:33:28.277Z,102315.23
2023-09-08T09:35:55.417Z,102305.58
2023-09-08T09:38:22.366Z,102306.00
2023-09-08T09:40:50.687Z,102305.65
2023-09-08T09:43:21.823Z,102307.33
2023-09-08T09:45:50.242Z,102304.80
2023-09-08T09:48:21.083Z,102310.37
2023-09-08T09:50:49.289Z,102305.14
2023-09-08T09:53:17.398Z,102308.58
2023-09-08T09:55:46.111Z,102311.27
2023-09-08T09:58:14.284Z,102309.08
2023-09-08T10:00:42.762Z,102305.45
2023-09-08T10:03:10.719Z,102303.17
2023-09-08T10:05:39.242Z,102295.83
2023-09-08T10:08:06.361Z,102296.79
2023-09-08T10:10:34.614Z,102291.19
2023-09-08T10:13:07.020Z,102289.20
2023-09-08T10:15:34.209Z,102283.01
2023-09-08T10:18:05.847Z,102277.95
2023-09-08T10:20:37.008Z,102275.90
2023-09-08T10:23:14.046Z,102277.89
2023-09-08T10:25:49.693Z,102283.97
2023-09-08T10:28:18.312Z,102289.33
2023-09-08T10:30:47.223Z,102287.48
2023-09-08T10:33:17.985Z,102286.64
2023-09-08T10:35:46.326Z,102284.70
2023-09-08T10:38:26.504Z,102281.74
2023-09-08T10:41:16.876Z,102282.52
2023-09-08T10:43:57.075Z,102278.86
2023-09-08T10:46:31.882Z,102275.23
2023-09-08T10:49:07.408Z,102278.09
2023-09-08T10:51:36.281Z,102278.09
2023-09-08T10:54:03.553Z,102278.42
2023-09-08T10:56:54.944Z,102280.16
2023-09-08T10:59:29.158Z,102279.44
2023-09-08T11:01:56.141Z,102275.95
2023-09-08T11:04:25.753Z,102271.79
2023-09-08T11:06:52.924Z,102267.56
2023-09-08T11:09:20.542Z,102268.04
2023-09-08T11:11:48.744Z,102266.59
2023-09-08T11:14:15.686Z,102267.55
2023-09-08T11:16:43.567Z,102265.39
2023-09-08T11:19:11.717Z,102263.63
2023-09-08T11:21:41.767Z,102260.08
2023-09-08T11:24:10.783Z,102260.48
2023-09-08T11:26:38.065Z,102263.02
2023-09-08T11:29:05.832Z,102268.80
2023-09-08T11:31:34.150Z,102268.86
2023-09-08T11:34:01.123Z,102275.83
2023-09-08T11:36:29.609Z,102268.60
2023-09-08T11:38:57.847Z,102268.44
2023-09-08T11:41:25.175Z,102268.67
2023-09-08T11:43:52.740Z,102257.83
2023-09-08T11:46:21.976Z,102256.46
2023-09-08T11:48:49.349Z,102250.41
2023-09-08T11:51:16.258Z,102248.79
2023-09-08T11:53:44.527Z,102244.71
2023-09-08T11:56:11.611Z,102244.06
2023-09-08T11:58:39.148Z,102240.40
2023-09-08T12:01:08.317Z,102246.50
2023-09-08T12:03:35.288Z,102251.60
2023-09-08T12:06:02.596Z,102254.80
2023-09-08T12:08:31.043Z,102253.70
2023-09-08T12:10:57.966Z,102256.44
2023-09-08T12:13:24.872Z,102251.89
2023-09-08T12:15:53.131Z,102249.21
2023-09-08T12:18:38.180Z,102254.04
2023-09-08T12:21:06.484Z,102247.90
2023-09-08T12:23:33.344Z,102242.02
2023-09-08T12:26:01.311Z,102238.73
2023-09-08T12:28:31.353Z,102243.11
2023-09-08T12:30:58.702Z,102241.31
2023-09-08T12:33:27.962Z,102234.48
2023-09-08T12:35:54.857Z,102228.92
2023-09-08T12:38:21.914Z,102231.80
2023-09-08T12:40:50.072Z,102223.45
2023-09-08T12:43:27.178Z,102222.38
2023-09-08T12:45:56.431Z,102221.62
2023-09-08T12:48:24.372Z,102219.27
2023-09-08T12:50:51.323Z,102214.08
2023-09-08T12:53:19.930Z,102211.92
2023-09-08T12:55:47.474Z,102206.59
2023-09-08T12:58:15.073Z,102206.10
2023-09-08T13:00:44.831Z,102209.16
2023-09-08T13:03:12.066Z,102204.74
2023-09-08T13:05:41.397Z,102200.89
2023-09-08T13:08:08.343Z,102197.54
2023-09-08T13:10:35.301Z,102196.28
2023-09-08T13:13:04.056Z,102193.37
2023-09-08T13:15:31.064Z,102187.13
2023-09-08T13:17:58.005Z,102180.94
2023-09-08T13:20:26.470Z,102179.42
2023-09-08T13:22:53.363Z,102178.35
2023-09-08T13:25:20.357Z,102176.42
2023-09-08T13:27:48.563Z,102173.69
2023-09-08T13:30:16.501Z,102169.45
2023-09-08T13:32:44.902Z,102163.52
2023-09-08T13:35:13.311Z,102163.82
2023-09-08T13:37:40.242Z,102162.74
2023-09-08T13:40:08.682Z,102163.21
2023-09-08T13:42:37.738Z,102162.09
2023-09-08T13:45:05.846Z,102165.32
2023-09-08T13:47:33.798Z,102162.33
2023-09-08T13:50:06.299Z,102162.81
2023-09-08T13:52:37.334Z,102162.29
2023-09-08T13:57:41.170Z,102156.09
2023-09-08T14:00:16.358Z,102153.48
2023-09-08T14:07:47.107Z,102139.48
2023-09-08T14:12:53.806Z,102132.52
2023-09-08T14:15:22.107Z,102130.30
2023-09-08T14:17:49.100Z,102127.03
2023-09-08T14:20:16.110Z,102118.92
2023-09-08T14:22:44.372Z,102121.70
2023-09-08T14:25:11.285Z,102114.70
2023-09-08T14:27:38.232Z,102110.10
2023-09-08T14:30:07.188Z,102106.75
2023-09-08T14:32:34.248Z,102105.73
2023-09-08T14:35:01.688Z,102105.80
2023-09-08T14:37:29.916Z,102105.65
2023-09-08T14:39:56.756Z,102108.21
2023-09-08T14:42:23.617Z,102104.72
2023-09-08T14:44:51.732Z,102098.20
2023-09-08T14:47:18.740Z,102099.24
2023-09-08T14:49:45.648Z,102100.08
2023-09-08T14:52:13.826Z,102094.25
2023-09-08T14:54:41.194Z,102092.03
2023-09-08T14:57:08.148Z,102089.20
2023-09-08T14:59:36.401Z,102087.88
2023-09-08T15:02:03.673Z,102083.77
2023-09-08T15:04:30.671Z,102084.83
2023-09-08T15:06:58.839Z,102080.81
2023-09-08T15:09:25.732Z,102080.98
2023-09-08T15:11:52.567Z,102074.75
2023-09-08T15:14:20.769Z,102076.89
2023-09-08T15:16:47.689Z,102076.92
2023-09-08T15:19:14.639Z,102080.85
2023-09-08T15:21:42.797Z,102080.74
2023-09-08T15:24:09.663Z,102078.63
2023-09-08T15:26:36.578Z,102075.22
2023-09-08T15:29:04.128Z,102072.95
2023-09-08T15:31:31.292Z,102073.37
2023-09-08T15:33:58.244Z,102066.20
2023-09-08T15:36:26.416Z,102068.66
2023-09-08T15:38:53.313Z,102066.92
2023-09-08T15:41:20.189Z,102061.55
2023-09-08T15:43:50.911Z,102061.00
2023-09-08T15:46:19.185Z,102057.46
2023-09-08T15:48:47.679Z,102058.44
2023-09-08T15:51:15.393Z,102062.00
2023-09-08T15:53:42.500Z,102066.78
2023-09-08T15:56:10.842Z,102066.26
2023-09-08T15:58:38.415Z,102064.31
2023-09-08T16:01:05.378Z,102061.38
2023-09-08T16:03:33.597Z,102067.14
2023-09-08T16:06:00.750Z,102062.66
2023-09-08T16:08:27.846Z,102055.48
2023-09-08T16:10:56.024Z,102065.36
2023-09-08T16:13:22.979Z,102059.35
2023-09-08T16:15:49.906Z,102060.08
2023-09-08T16:18:18.089Z,102054.05
2023-09-08T16:20:45.001Z,102057.93
2023-09-08T16:23:12.090Z,102054.20
2023-09-08T16:25:40.289Z,102053.66
2023-09-08T16:28:07.309Z,102050.88
2023-09-08T16:30:36.017Z,102052.00
2023-09-08T16:33:04.703Z,102052.87
2023-09-08T16:35:31.605Z,102051.48
2023-09-08T16:37:58.442Z,102043.27
2023-09-08T16:40:25.827Z,102039.77
2023-09-08T16:42:52.743Z,102036.88
2023-09-08T16:45:19.578Z,102038.00
2023-09-08T16:47:47.763Z,102031.44
2023-09-08T16:50:14.608Z,102031.01
2023-09-08T16:52:41.494Z,102030.50
2023-09-08T16:55:09.647Z,102027.83
2023-09-08T16:57:36.674Z,102030.84
2023-09-08T17:00:04.721Z,102026.81
2023-09-08T17:02:35.416Z,102024.02
2023-09-08T17:05:02.914Z,102025.91
2023-09-08T17:07:31.162Z,102024.38
2023-09-08T17:09:58.603Z,102025.63
2023-09-08T17:12:25.652Z,102025.41
2023-09-08T17:14:54.484Z,102026.55
2023-09-08T17:17:21.754Z,102034.84
2023-09-08T17:19:48.675Z,102032.95
2023-09-08T17:22:16.927Z,102033.27
2023-09-08T17:24:43.849Z,102033.08
2023-09-08T17:27:10.776Z,102033.96
2023-09-08T17:29:38.963Z,102036.94
2023-09-08T17:32:05.856Z,102031.04
2023-09-08T17:34:32.681Z,102036.02
2023-09-08T17:37:00.836Z,102036.40
2023-09-08T17:39:28.080Z,102037.48
2023-09-08T17:41:56.346Z,102034.36
2023-09-08T17:44:24.561Z,102029.88
2023-09-08T17:46:51.597Z,102028.10
2023-09-08T17:49:18.586Z,102022.29
2023-09-08T17:51:46.707Z,102020.04
2023-09-08T17:54:13.633Z,102022.89
2023-09-08T17:56:40.568Z,102022.83
2023-09-08T17:59:07.933Z,102024.02
2023-09-08T18:01:34.998Z,102022.35
2023-09-08T18:04:02.180Z,102024.47
2023-09-08T18:06:30.455Z,102026.05
2023-09-08T18:08:57.341Z,102025.48
2023-09-08T18:11:24.285Z,102026.20
2023-09-08T18:13:52.419Z,102029.30
2023-09-08T18:16:19.341Z,102026.55
2023-09-08T18:18:46.233Z,102026.89
2023-09-08T18:21:13.819Z,102025.89
2023-09-08T18:23:41.413Z,102020.03
2023-09-08T18:26:08.497Z,102020.85
2023-09-08T18:28:36.026Z,102020.70
2023-09-08T18:31:03.187Z,102020.39
2023-09-08T18:33:30.183Z,102019.55
2023-09-08T18:35:58.460Z,102015.24
2023-09-08T18:38:25.958Z,102016.80
2023-09-08T18:40:52.860Z,102017.88
2023-09-08T18:43:21.062Z,102020.39
2023-09-08T18:45:47.912Z,102020.02
2023-09-08T18:48:14.863Z,102020.38
2023-09-08T18:50:43.247Z,102021.84
2023-09-08T18:53:10.414Z,102025.09
2023-09-08T18:55:37.348Z,102023.92
2023-09-08T18:58:05.528Z,102026.50
2023-09-08T19:00:32.446Z,102027.41
2023-09-08T19:03:00.003Z,102022.67
2023-09-08T19:05:28.729Z,102019.88
2023-09-08T19:07:55.638Z,102021.96
2023-09-08T19:10:22.552Z,102025.89
2023-09-08T19:12:50.726Z,102022.54
2023-09-08T19:15:17.629Z,102024.87
2023-09-08T19:17:44.609Z,102021.37
2023-09-08T19:20:12.940Z,102022.45
2023-09-08T19:22:39.853Z,102022.31
2023-09-08T19:25:07.199Z,102017.55
2023-09-08T19:27:36.687Z,102023.05
2023-09-08T19:30:04.622Z,102027.91
2023-09-08T19:32:33.825Z,102028.97
2023-09-08T19:35:00.942Z,102029.43
2023-09-08T19:37:27.934Z,102025.88
2023-09-08T19:39:56.185Z,102023.63
2023-09-08T19:42:23.146Z,102021.05
2023-09-08T19:44:50.088Z,102024.98
2023-09-08T19:47:18.285Z,102025.01
2023-09-08T19:49:45.184Z,102029.58
2023-09-08T19:52:12.447Z,102028.10
2023-09-08T19:54:40.809Z,102025.64
2023-09-08T19:57:07.699Z,102021.58
2023-09-08T19:59:35.398Z,102020.02
2023-09-08T20:02:03.730Z,102012.23
2023-09-08T20:04:30.645Z,102013.03
2023-09-08T20:06:57.545Z,102010.89
2023-09-08T20:09:25.900Z,102005.90
2023-09-08T20:11:52.806Z,102008.36
2023-09-08T20:14:19.669Z,102010.16
2023-09-08T20:16:48.055Z,102010.36
2023-09-08T20:19:14.911Z,102011.11
2023-09-08T20:21:41.817Z,102011.81
2023-09-08T20:24:10.051Z,102009.02
2023-09-08T20:26:36.927Z,102004.94
2023-09-08T20:29:04.005Z,102005.68
2023-09-08T20:31:32.227Z,102001.59
2023-09-08T20:33:59.114Z,102000.05
2023-09-08T20:36:26.038Z,101999.09
2023-09-08T20:38:54.184Z,101994.84
2023-09-08T20:41:21.085Z,101994.62
2023-09-08T20:43:48.003Z,101994.26
2023-09-08T20:46:16.166Z,101995.79
2023-09-08T20:48:43.058Z,101994.77
2023-09-08T20:51:13.632Z,101991.39
2023-09-08T20:53:42.291Z,101998.39
2023-09-08T20:56:10.572Z,101996.04
2023-09-08T20:58:42.429Z,102001.92
2023-09-08T21:01:10.472Z,101999.41
2023-09-08T21:03:39.298Z,102002.91
2023-09-08T21:06:07.210Z,101992.80
2023-09-08T21:08:34.204Z,101996.71
2023-09-08T21:11:02.402Z,101996.09
2023-09-08T21:13:29.700Z,101997.10
2023-09-08T21:15:56.626Z,102001.60
2023-09-08T21:18:24.784Z,102002.27
2023-09-08T21:20:51.677Z,101995.80
2023-09-08T21:23:18.573Z,101992.72
2023-09-08T21:25:46.795Z,101989.70
2023-09-08T21:28:13.661Z,101985.21
2023-09-08T21:30:40.614Z,101982.09
2023-09-08T21:33:09.154Z,101987.11
2023-09-08T21:35:36.115Z,101987.77
2023-09-08T21:38:03.080Z,101981.05
2023-09-08T21:40:31.246Z,101981.05
2023-09-08T21:42:58.665Z,101983.91
2023-09-08T21:45:25.740Z,101985.90
2023-09-08T21:47:53.952Z,101980.21
2023-09-08T21:50:20.819Z,101981.79
2023-09-08T21:52:47.728Z,101977.21
2023-09-08T21:55:15.944Z,101964.60
2023-09-08T21:57:42.838Z,101964.80
2023-09-08T22:00:10.210Z,101966.39
2023-09-08T22:02:38.476Z,101968.80
2023-09-08T22:05:06.038Z,101968.93
2023-09-08T22:07:35.361Z,101964.05
2023-09-08T22:10:02.414Z,101959.68
2023-09-08T22:12:29.331Z,101957.86
2023-09-08T22:14:57.439Z,101964.12
2023-09-08T22:17:24.284Z,101954.88
2023-09-08T22:19:54.026Z,101959.55
2023-09-08T22:22:22.243Z,101955.20
2023-09-08T22:24:49.127Z,101959.75
2023-09-08T22:27:16.043Z,101953.25
2023-09-08T22:29:44.198Z,101952.45
2023-09-08T22:32:11.042Z,101949.52
2023-09-08T22:34:37.938Z,101948.81
2023-09-08T22:37:06.123Z,101951.58
2023-09-08T22:39:32.985Z,101951.33
2023-09-08T22:41:59.818Z,101955.17
2023-09-08T22:44:27.944Z,101951.19
2023-09-08T22:46:54.887Z,101952.27
2023-09-08T22:49:21.846Z,101954.84
2023-09-08T22:51:49.957Z,101959.55
2023-09-08T22:54:16.840Z,101962.81
2023-09-08T22:56:43.708Z,101960.95
2023-09-08T22:59:11.829Z,101958.80
2023-09-08T23:01:38.715Z,101953.39
2023-09-08T23:04:05.821Z,101949.58
2023-09-08T23:06:33.966Z,101948.86
2023-09-08T23:09:00.803Z,101942.95
2023-09-08T23:11:27.881Z,101943.31
2023-09-08T23:13:56.022Z,101939.70
2023-09-08T23:16:22.982Z,101939.30
2023-09-08T23:18:49.821Z,101941.48
2023-09-08T23:21:17.996Z,101939.33
2023-09-08T23:23:44.869Z,101933.87
2023-09-08T23:26:11.756Z,101929.17
2023-09-08T23:28:39.927Z,101928.32
2023-09-08T23:31:06.831Z,101925.56
2023-09-08T23:33:33.754Z,101924.97
2023-09-08T23:36:01.958Z,101924.03
2023-09-08T23:38:28.851Z,101923.62
2023-09-08T23:40:55.740Z,101920.14
2023-09-08T23:43:23.880Z,101915.54
2023-09-08T23:45:50.750Z,101922.42
2023-09-08T23:48:17.603Z,101922.04
2023-09-08T23:50:55.420Z,101919.45
2023-09-08T23:53:28.688Z,101919.29
2023-09-08T23:55:55.893Z,101923.15
2023-09-08T23:58:24.187Z,101919.89
